sensor_id;sensor_type;location;lat;lon;timestamp;pressure;altitude;pressure_sealevel;temperature;humidity
19676;BME280;39539;52.202;9.876;2022-09-03T00:01:40;100894.59;;;14.79;66.35
19676;BME280;39539;52.202;9.876;2022-09-03T00:04:24;100902.75;;;14.84;66.52
19676;BME280;39539;52.202;9.876;2022-09-03T00:06:59;100901.38;;;14.81;66.59
19676;BME280;39539;52.202;9.876;2022-09-03T00:09:30;100896.47;;;14.78;67.39
19676;BME280;39539;52.202;9.876;2022-09-03T00:12:14;100900.56;;;14.81;67.38
19676;BME280;39539;52.202;9.876;2022-09-03T00:17:20;100896.78;;;14.70;67.91
19676;BME280;39539;52.202;9.876;2022-09-03T00:19:57;100885.34;;;14.63;68.27
19676;BME280;39539;52.202;9.876;2022-09-03T00:22:32;100881.06;;;14.62;68.61
19676;BME280;39539;52.202;9.876;2022-09-03T00:25:02;100880.38;;;14.67;68.24
19676;BME280;39539;52.202;9.876;2022-09-03T00:27:31;100884.47;;;14.69;67.97
19676;BME280;39539;52.202;9.876;2022-09-03T00:30:05;100884.34;;;14.64;68.37
19676;BME280;39539;52.202;9.876;2022-09-03T00:35:15;100877.09;;;14.53;69.00
19676;BME280;39539;52.202;9.876;2022-09-03T00:37:43;100873.44;;;14.47;69.06
19676;BME280;39539;52.202;9.876;2022-09-03T00:42:57;100882.94;;;14.43;69.29
19676;BME280;39539;52.202;9.876;2022-09-03T00:51:49;100880.56;;;14.35;70.21
19676;BME280;39539;52.202;9.876;2022-09-03T00:56:56;100875.19;;;14.23;70.88
19676;BME280;39539;52.202;9.876;2022-09-03T00:59:37;100878.91;;;14.22;70.79
19676;BME280;39539;52.202;9.876;2022-09-03T01:05:14;100884.47;;;14.21;70.98
19676;BME280;39539;52.202;9.876;2022-09-03T01:07:59;100883.06;;;14.18;71.19
19676;BME280;39539;52.202;9.876;2022-09-03T01:11:07;100874.06;;;14.12;71.23
19676;BME280;39539;52.202;9.876;2022-09-03T01:13:28;100892.88;;;14.06;71.77
19676;BME280;39539;52.202;9.876;2022-09-03T01:19:28;100897.06;;;14.02;72.20
19676;BME280;39539;52.202;9.876;2022-09-03T01:30:27;100900.41;;;13.79;73.31
19676;BME280;39539;52.202;9.876;2022-09-03T01:38:51;100897.25;;;13.63;74.36
19676;BME280;39539;52.202;9.876;2022-09-03T01:42:01;100897.72;;;13.60;74.33
19676;BME280;39539;52.202;9.876;2022-09-03T01:45:03;100911.31;;;13.59;74.37
19676;BME280;39539;52.202;9.876;2022-09-03T01:47:53;100898.34;;;13.56;74.84
19676;BME280;39539;52.202;9.876;2022-09-03T01:50:57;100902.06;;;13.55;74.76
19676;BME280;39539;52.202;9.876;2022-09-03T02:02:10;100895.84;;;13.42;75.28
19676;BME280;39539;52.202;9.876;2022-09-03T02:05:02;100891.94;;;13.38;75.34
19676;BME280;39539;52.202;9.876;2022-09-03T02:07:35;100894.34;;;13.46;75.19
19676;BME280;39539;52.202;9.876;2022-09-03T02:10:04;100891.06;;;13.44;75.17
19676;BME280;39539;52.202;9.876;2022-09-03T02:12:32;100875.19;;;13.31;75.33
19676;BME280;39539;52.202;9.876;2022-09-03T02:15:00;100895.75;;;13.49;75.47
19676;BME280;39539;52.202;9.876;2022-09-03T02:17:29;100908.91;;;13.51;75.21
19676;BME280;39539;52.202;9.876;2022-09-03T02:19:55;100910.97;;;13.48;74.95
19676;BME280;39539;52.202;9.876;2022-09-03T02:22:22;100897.72;;;13.35;75.24
19676;BME280;39539;52.202;9.876;2022-09-03T02:24:49;100921.03;;;13.46;75.15
19676;BME280;39539;52.202;9.876;2022-09-03T02:27:14;100889.13;;;13.33;75.47
19676;BME280;39539;52.202;9.876;2022-09-03T02:29:40;100901.00;;;13.37;75.88
19676;BME280;39539;52.202;9.876;2022-09-03T02:32:06;100896.56;;;13.31;76.29
19676;BME280;39539;52.202;9.876;2022-09-03T02:34:31;100897.19;;;13.27;76.04
19676;BME280;39539;52.202;9.876;2022-09-03T02:36:57;100879.00;;;13.17;76.47
19676;BME280;39539;52.202;9.876;2022-09-03T02:39:22;100879.19;;;13.15;76.32
19676;BME280;39539;52.202;9.876;2022-09-03T02:41:54;100889.41;;;13.25;76.61
19676;BME280;39539;52.202;9.876;2022-09-03T02:44:27;100900.69;;;13.27;76.43
19676;BME280;39539;52.202;9.876;2022-09-03T02:47:00;100897.00;;;13.28;76.23
19676;BME280;39539;52.202;9.876;2022-09-03T02:49:27;100905.56;;;13.30;76.42
19676;BME280;39539;52.202;9.876;2022-09-03T02:51:57;100898.63;;;13.29;76.17
19676;BME280;39539;52.202;9.876;2022-09-03T02:54:25;100892.06;;;13.25;76.31
19676;BME280;39539;52.202;9.876;2022-09-03T02:56:51;100899.88;;;13.27;76.34
19676;BME280;39539;52.202;9.876;2022-09-03T02:59:17;100894.72;;;13.25;76.31
19676;BME280;39539;52.202;9.876;2022-09-03T03:01:42;100896.78;;;13.23;76.16
19676;BME280;39539;52.202;9.876;2022-09-03T03:04:08;100883.88;;;13.20;76.30
19676;BME280;39539;52.202;9.876;2022-09-03T03:06:33;100885.06;;;13.24;75.97
19676;BME280;39539;52.202;9.876;2022-09-03T03:08:58;100885.06;;;13.24;76.32
19676;BME280;39539;52.202;9.876;2022-09-03T03:11:25;100897.00;;;13.28;76.46
19676;BME280;39539;52.202;9.876;2022-09-03T03:13:51;100895.13;;;13.29;75.99
19676;BME280;39539;52.202;9.876;2022-09-03T03:16:17;100903.06;;;13.35;76.32
19676;BME280;39539;52.202;9.876;2022-09-03T03:18:44;100884.91;;;13.25;76.58
19676;BME280;39539;52.202;9.876;2022-09-03T03:21:16;100903.97;;;13.29;76.67
19676;BME280;39539;52.202;9.876;2022-09-03T03:23:43;100902.34;;;13.28;76.67
19676;BME280;39539;52.202;9.876;2022-09-03T03:26:11;100888.38;;;13.26;76.67
19676;BME280;39539;52.202;9.876;2022-09-03T03:28:38;100902.75;;;13.25;77.16
19676;BME280;39539;52.202;9.876;2022-09-03T03:31:07;100901.31;;;13.22;76.98
19676;BME280;39539;52.202;9.876;2022-09-03T03:33:34;100878.66;;;13.07;77.54
19676;BME280;39539;52.202;9.876;2022-09-03T03:36:07;100895.44;;;13.14;77.66
19676;BME280;39539;52.202;9.876;2022-09-03T03:38:34;100893.84;;;13.06;78.35
19676;BME280;39539;52.202;9.876;2022-09-03T03:41:09;100883.88;;;12.95;78.56
19676;BME280;39539;52.202;9.876;2022-09-03T03:43:34;100906.28;;;12.94;79.46
19676;BME280;39539;52.202;9.876;2022-09-03T03:46:00;100867.38;;;12.79;79.26
19676;BME280;39539;52.202;9.876;2022-09-03T03:48:25;100896.84;;;12.91;80.00
19676;BME280;39539;52.202;9.876;2022-09-03T03:50:51;100894.38;;;12.90;80.06
19676;BME280;39539;52.202;9.876;2022-09-03T03:53:17;100886.63;;;12.81;80.05
19676;BME280;39539;52.202;9.876;2022-09-03T03:55:43;100894.44;;;12.83;80.61
19676;BME280;39539;52.202;9.876;2022-09-03T03:58:18;100896.88;;;12.85;80.25
19676;BME280;39539;52.202;9.876;2022-09-03T04:00:43;100879.06;;;12.78;80.24
19676;BME280;39539;52.202;9.876;2022-09-03T04:03:09;100891.94;;;12.88;80.28
19676;BME280;39539;52.202;9.876;2022-09-03T04:05:34;100899.09;;;12.88;80.26
19676;BME280;39539;52.202;9.876;2022-09-03T04:08:00;100888.72;;;12.79;80.87
19676;BME280;39539;52.202;9.876;2022-09-03T04:10:26;100896.13;;;12.77;80.59
19676;BME280;39539;52.202;9.876;2022-09-03T04:12:53;100893.66;;;12.76;80.77
19676;BME280;39539;52.202;9.876;2022-09-03T04:15:18;100902.88;;;12.80;80.74
19676;BME280;39539;52.202;9.876;2022-09-03T04:17:44;100906.34;;;12.80;80.44
19676;BME280;39539;52.202;9.876;2022-09-03T04:20:09;100884.91;;;12.62;80.98
19676;BME280;39539;52.202;9.876;2022-09-03T04:22:36;100882.22;;;12.69;80.67
19676;BME280;39539;52.202;9.876;2022-09-03T04:25:01;100886.09;;;12.73;80.60
19676;BME280;39539;52.202;9.876;2022-09-03T04:27:27;100889.13;;;12.76;80.64
19676;BME280;39539;52.202;9.876;2022-09-03T04:29:53;100902.06;;;12.79;80.41
19676;BME280;39539;52.202;9.876;2022-09-03T04:32:18;100883.03;;;12.69;80.69
19676;BME280;39539;52.202;9.876;2022-09-03T04:35:25;100886.09;;;12.73;80.43
19676;BME280;39539;52.202;9.876;2022-09-03T04:37:59;100890.19;;;12.75;80.91
19676;BME280;39539;52.202;9.876;2022-09-03T04:40:24;100888.75;;;12.73;80.80
19676;BME280;39539;52.202;9.876;2022-09-03T04:42:50;100878.34;;;12.65;81.04
19676;BME280;39539;52.202;9.876;2022-09-03T04:45:16;100898.22;;;12.69;80.83
19676;BME280;39539;52.202;9.876;2022-09-03T04:47:57;100881.25;;;12.56;81.51
19676;BME280;39539;52.202;9.876;2022-09-03T04:50:23;100892.47;;;12.65;80.97
19676;BME280;39539;52.202;9.876;2022-09-03T04:52:48;100877.44;;;12.46;81.33
19676;BME280;39539;52.202;9.876;2022-09-03T04:55:15;100872.94;;;12.46;81.64
19676;BME280;39539;52.202;9.876;2022-09-03T04:57:41;100885.66;;;12.44;81.95
19676;BME280;39539;52.202;9.876;2022-09-03T05:00:07;100874.00;;;12.39;82.14
19676;BME280;39539;52.202;9.876;2022-09-03T05:02:35;100890.56;;;12.47;82.49
19676;BME280;39539;52.202;9.876;2022-09-03T05:05:01;100902.88;;;12.48;82.24
19676;BME280;39539;52.202;9.876;2022-09-03T05:07:26;100880.38;;;12.31;82.78
19676;BME280;39539;52.202;9.876;2022-09-03T05:09:53;100897.16;;;12.38;82.80
19676;BME280;39539;52.202;9.876;2022-09-03T05:12:19;100889.34;;;12.43;82.01
19676;BME280;39539;52.202;9.876;2022-09-03T05:14:47;100877.13;;;12.29;82.62
19676;BME280;39539;52.202;9.876;2022-09-03T05:17:12;100891.78;;;12.45;81.99
19676;BME280;39539;52.202;9.876;2022-09-03T05:19:38;100895.03;;;12.53;82.03
19676;BME280;39539;52.202;9.876;2022-09-03T05:22:03;100894.06;;;12.41;82.16
19676;BME280;39539;52.202;9.876;2022-09-03T05:24:30;100886.31;;;12.33;82.69
19676;BME280;39539;52.202;9.876;2022-09-03T05:26:55;100871.56;;;12.30;82.54
19676;BME280;39539;52.202;9.876;2022-09-03T05:29:21;100901.66;;;12.44;82.28
19676;BME280;39539;52.202;9.876;2022-09-03T05:31:53;100906.22;;;12.30;83.60
19676;BME280;39539;52.202;9.876;2022-09-03T05:34:18;100906.22;;;12.37;83.58
19676;BME280;39539;52.202;9.876;2022-09-03T05:36:44;100900.69;;;12.32;84.08
19676;BME280;39539;52.202;9.876;2022-09-03T05:39:13;100902.31;;;12.33;83.54
19676;BME280;39539;52.202;9.876;2022-09-03T05:41:38;100895.56;;;12.30;84.22
19676;BME280;39539;52.202;9.876;2022-09-03T05:44:04;100901.47;;;12.39;83.72
19676;BME280;39539;52.202;9.876;2022-09-03T05:46:32;100898.59;;;12.41;84.21
19676;BME280;39539;52.202;9.876;2022-09-03T05:49:02;100896.94;;;12.46;83.28
19676;BME280;39539;52.202;9.876;2022-09-03T05:51:29;100902.47;;;12.76;82.27
19676;BME280;39539;52.202;9.876;2022-09-03T05:54:01;100892.97;;;12.87;81.59
19676;BME280;39539;52.202;9.876;2022-09-03T05:56:29;100889.41;;;13.00;80.85
19676;BME280;39539;52.202;9.876;2022-09-03T05:58:58;100892.16;;;13.12;80.24
19676;BME280;39539;52.202;9.876;2022-09-03T06:01:31;100875.19;;;13.31;79.91
19676;BME280;39539;52.202;9.876;2022-09-03T06:04:01;100916.34;;;15.83;70.39
19676;BME280;39539;52.202;9.876;2022-09-03T06:06:29;100897.03;;;18.07;59.77
19676;BME280;39539;52.202;9.876;2022-09-03T06:08:59;100872.84;;;20.57;53.63
19676;BME280;39539;52.202;9.876;2022-09-03T06:11:27;100850.88;;;21.50;50.54
19676;BME280;39539;52.202;9.876;2022-09-03T06:13:54;100824.41;;;22.81;47.23
19676;BME280;39539;52.202;9.876;2022-09-03T06:16:21;100789.47;;;22.79;46.10
19676;BME280;39539;52.202;9.876;2022-09-03T06:18:47;100800.97;;;23.91;44.99
19676;BME280;39539;52.202;9.876;2022-09-03T06:21:13;100778.88;;;25.79;41.68
19676;BME280;39539;52.202;9.876;2022-09-03T06:23:39;100777.53;;;25.40;41.70
19676;BME280;39539;52.202;9.876;2022-09-03T06:28:35;100772.53;;;27.05;39.42
19676;BME280;39539;52.202;9.876;2022-09-03T06:31:04;100765.06;;;28.03;37.68
19676;BME280;39539;52.202;9.876;2022-09-03T06:33:31;100729.03;;;27.74;37.50
19676;BME280;39539;52.202;9.876;2022-09-03T06:35:59;100745.59;;;28.04;37.97
19676;BME280;39539;52.202;9.876;2022-09-03T06:38:27;100741.91;;;28.82;36.27
19676;BME280;39539;52.202;9.876;2022-09-03T06:40:59;100723.91;;;29.82;34.69
19676;BME280;39539;52.202;9.876;2022-09-03T06:43:27;100735.13;;;29.47;35.33
19676;BME280;39539;52.202;9.876;2022-09-03T06:46:13;100730.84;;;29.59;35.10
19676;BME280;39539;52.202;9.876;2022-09-03T06:48:40;100705.72;;;29.36;35.22
19676;BME280;39539;52.202;9.876;2022-09-03T06:51:08;100720.22;;;29.36;35.04
19676;BME280;39539;52.202;9.876;2022-09-03T06:53:36;100705.00;;;28.88;35.85
19676;BME280;39539;52.202;9.876;2022-09-03T06:56:05;100719.84;;;29.67;35.83
19676;BME280;39539;52.202;9.876;2022-09-03T06:58:32;100716.63;;;30.53;34.44
19676;BME280;39539;52.202;9.876;2022-09-03T07:01:12;100701.19;;;31.22;32.97
19676;BME280;39539;52.202;9.876;2022-09-03T07:03:39;100698.78;;;30.47;33.30
19676;BME280;39539;52.202;9.876;2022-09-03T07:06:07;100705.25;;;29.96;34.49
19676;BME280;39539;52.202;9.876;2022-09-03T07:08:34;100691.28;;;28.97;35.14
19676;BME280;39539;52.202;9.876;2022-09-03T07:11:05;100690.94;;;28.69;35.65
19676;BME280;39539;52.202;9.876;2022-09-03T07:13:44;100692.69;;;28.64;36.23
19676;BME280;39539;52.202;9.876;2022-09-03T07:16:22;100681.03;;;27.07;37.60
19676;BME280;39539;52.202;9.876;2022-09-03T07:18:48;100680.38;;;26.53;38.67
19676;BME280;39539;52.202;9.876;2022-09-03T07:21:22;100686.91;;;26.83;38.13
19676;BME280;39539;52.202;9.876;2022-09-03T07:23:49;100697.75;;;26.66;38.33
19676;BME280;39539;52.202;9.876;2022-09-03T07:26:27;100697.28;;;25.74;39.75
19676;BME280;39539;52.202;9.876;2022-09-03T07:28:53;100693.59;;;24.32;42.61
19676;BME280;39539;52.202;9.876;2022-09-03T07:31:22;100685.66;;;24.03;42.63
19676;BME280;39539;52.202;9.876;2022-09-03T07:33:51;100671.91;;;23.18;44.28
19676;BME280;39539;52.202;9.876;2022-09-03T07:36:19;100697.91;;;24.00;43.66
19676;BME280;39539;52.202;9.876;2022-09-03T07:38:44;100704.63;;;24.22;43.30
19676;BME280;39539;52.202;9.876;2022-09-03T07:41:12;100687.78;;;22.58;44.98
19676;BME280;39539;52.202;9.876;2022-09-03T07:43:43;100698.97;;;21.83;47.76
19676;BME280;39539;52.202;9.876;2022-09-03T07:46:12;100684.38;;;21.29;48.42
19676;BME280;39539;52.202;9.876;2022-09-03T07:48:39;100688.34;;;20.51;49.88
19676;BME280;39539;52.202;9.876;2022-09-03T07:51:05;100688.38;;;20.00;50.95
19676;BME280;39539;52.202;9.876;2022-09-03T07:53:32;100711.53;;;20.98;50.25
19676;BME280;39539;52.202;9.876;2022-09-03T07:56:05;100716.56;;;22.54;47.75
19676;BME280;39539;52.202;9.876;2022-09-03T07:58:33;100726.03;;;23.71;45.46
19676;BME280;39539;52.202;9.876;2022-09-03T08:01:04;100727.56;;;23.78;44.89
19676;BME280;39539;52.202;9.876;2022-09-03T08:03:37;100725.09;;;23.19;45.06
19676;BME280;39539;52.202;9.876;2022-09-03T08:06:05;100691.91;;;22.21;47.23
19676;BME280;39539;52.202;9.876;2022-09-03T08:08:32;100699.44;;;21.90;47.47
19676;BME280;39539;52.202;9.876;2022-09-03T08:11:08;100716.59;;;21.75;48.79
19676;BME280;39539;52.202;9.876;2022-09-03T08:13:55;100730.50;;;21.58;48.49
19676;BME280;39539;52.202;9.876;2022-09-03T08:16:25;100724.22;;;20.98;50.44
19676;BME280;39539;52.202;9.876;2022-09-03T08:18:51;100733.63;;;21.11;50.32
19676;BME280;39539;52.202;9.876;2022-09-03T08:21:18;100725.91;;;20.58;50.78
19676;BME280;39539;52.202;9.876;2022-09-03T08:23:49;100724.56;;;20.50;50.97
19676;BME280;39539;52.202;9.876;2022-09-03T08:26:16;100739.16;;;20.54;51.21
19676;BME280;39539;52.202;9.876;2022-09-03T08:28:43;100709.94;;;19.90;52.94
19676;BME280;39539;52.202;9.876;2022-09-03T08:33:43;100743.16;;;20.52;52.57
19676;BME280;39539;52.202;9.876;2022-09-03T08:36:12;100747.22;;;20.90;51.08
19676;BME280;39539;52.202;9.876;2022-09-03T08:38:38;100763.84;;;21.33;50.66
19676;BME280;39539;52.202;9.876;2022-09-03T08:41:11;100767.97;;;21.80;48.71
19676;BME280;39539;52.202;9.876;2022-09-03T08:44:05;100769.97;;;23.06;46.77
19676;BME280;39539;52.202;9.876;2022-09-03T08:49:15;100744.72;;;24.30;43.58
19676;BME280;39539;52.202;9.876;2022-09-03T08:51:44;100738.50;;;24.10;43.68
19676;BME280;39539;52.202;9.876;2022-09-03T08:54:12;100731.66;;;23.56;45.21
19676;BME280;39539;52.202;9.876;2022-09-03T08:56:39;100730.63;;;23.52;44.95
19676;BME280;39539;52.202;9.876;2022-09-03T08:59:06;100727.88;;;23.95;43.75
19676;BME280;39539;52.202;9.876;2022-09-03T09:01:42;100731.59;;;24.18;43.74
19676;BME280;39539;52.202;9.876;2022-09-03T09:09:45;100733.16;;;25.53;41.31
19676;BME280;39539;52.202;9.876;2022-09-03T09:20:44;100716.53;;;29.02;35.10
19676;BME280;39539;52.202;9.876;2022-09-03T09:23:16;100706.72;;;29.52;35.36
19676;BME280;39539;52.202;9.876;2022-09-03T09:25:50;100693.91;;;29.65;33.55
19676;BME280;39539;52.202;9.876;2022-09-03T09:28:29;100690.59;;;29.29;34.50
19676;BME280;39539;52.202;9.876;2022-09-03T09:31:00;100676.66;;;29.85;34.12
19676;BME280;39539;52.202;9.876;2022-09-03T09:33:29;100671.66;;;29.45;33.97
19676;BME280;39539;52.202;9.876;2022-09-03T09:35:55;100666.03;;;27.88;35.20
19676;BME280;39539;52.202;9.876;2022-09-03T09:38:35;100656.16;;;27.09;35.97
19676;BME280;39539;52.202;9.876;2022-09-03T09:41:17;100645.03;;;26.88;37.12
19676;BME280;39539;52.202;9.876;2022-09-03T09:43:44;100652.16;;;27.15;36.57
19676;BME280;39539;52.202;9.876;2022-09-03T09:46:23;100657.19;;;27.30;36.83
19676;BME280;39539;52.202;9.876;2022-09-03T09:48:57;100659.38;;;28.15;35.22
19676;BME280;39539;52.202;9.876;2022-09-03T09:51:24;100635.44;;;28.12;35.20
19676;BME280;39539;52.202;9.876;2022-09-03T09:54:14;100652.19;;;27.67;35.73
19676;BME280;39539;52.202;9.876;2022-09-03T09:56:45;100644.19;;;27.53;35.94
19676;BME280;39539;52.202;9.876;2022-09-03T09:59:12;100635.28;;;28.17;34.72
19676;BME280;39539;52.202;9.876;2022-09-03T10:01:42;100636.03;;;28.74;35.01
19676;BME280;39539;52.202;9.876;2022-09-03T10:04:23;100623.31;;;28.31;34.49
19676;BME280;39539;52.202;9.876;2022-09-03T10:06:59;100627.47;;;27.55;35.60
19676;BME280;39539;52.202;9.876;2022-09-03T10:09:29;100619.81;;;26.74;36.46
19676;BME280;39539;52.202;9.876;2022-09-03T10:14:43;100622.16;;;26.58;36.90
19676;BME280;39539;52.202;9.876;2022-09-03T10:17:31;100639.25;;;25.87;37.51
19676;BME280;39539;52.202;9.876;2022-09-03T10:23:03;100612.75;;;26.02;37.05
19676;BME280;39539;52.202;9.876;2022-09-03T10:28:14;100616.47;;;25.10;39.14
19676;BME280;39539;52.202;9.876;2022-09-03T10:33:51;100609.03;;;23.16;41.48
19676;BME280;39539;52.202;9.876;2022-09-03T10:36:24;100607.28;;;22.82;41.64
19676;BME280;39539;52.202;9.876;2022-09-03T10:39:04;100608.94;;;22.78;41.73
19676;BME280;39539;52.202;9.876;2022-09-03T10:41:44;100626.03;;;23.03;41.71
19676;BME280;39539;52.202;9.876;2022-09-03T10:47:17;100617.91;;;22.79;41.75
19676;BME280;39539;52.202;9.876;2022-09-03T10:50:15;100639.50;;;22.84;42.04
19676;BME280;39539;52.202;9.876;2022-09-03T10:53:06;100623.84;;;23.05;41.95
19676;BME280;39539;52.202;9.876;2022-09-03T10:55:49;100622.81;;;23.20;41.47
19676;BME280;39539;52.202;9.876;2022-09-03T11:07:06;100622.66;;;23.49;41.45
19676;BME280;39539;52.202;9.876;2022-09-03T11:09:45;100625.97;;;23.46;41.48
19676;BME280;39539;52.202;9.876;2022-09-03T11:12:24;100600.59;;;23.18;41.27
19676;BME280;39539;52.202;9.876;2022-09-03T11:14:57;100618.00;;;23.36;41.63
19676;BME280;39539;52.202;9.876;2022-09-03T11:17:29;100591.59;;;23.22;41.24
19676;BME280;39539;52.202;9.876;2022-09-03T11:20:19;100613.59;;;23.40;41.98
19676;BME280;39539;52.202;9.876;2022-09-03T11:22:46;100630.22;;;23.71;42.00
19676;BME280;39539;52.202;9.876;2022-09-03T11:25:14;100627.72;;;23.74;41.05
19676;BME280;39539;52.202;9.876;2022-09-03T11:30:21;100602.22;;;23.38;41.41
19676;BME280;39539;52.202;9.876;2022-09-03T11:32:51;100616.56;;;23.57;40.98
19676;BME280;39539;52.202;9.876;2022-09-03T11:35:37;100598.38;;;23.58;41.36
19676;BME280;39539;52.202;9.876;2022-09-03T11:41:00;100601.63;;;23.41;40.54
19676;BME280;39539;52.202;9.876;2022-09-03T11:43:32;100613.06;;;23.38;40.91
19676;BME280;39539;52.202;9.876;2022-09-03T11:48:47;100595.25;;;23.31;41.48
19676;BME280;39539;52.202;9.876;2022-09-03T11:51:32;100589.91;;;23.26;40.67
19676;BME280;39539;52.202;9.876;2022-09-03T11:54:03;100597.31;;;23.40;41.15
19676;BME280;39539;52.202;9.876;2022-09-03T11:56:31;100585.66;;;23.39;41.19
19676;BME280;39539;52.202;9.876;2022-09-03T12:02:04;100591.28;;;23.43;40.69
19676;BME280;39539;52.202;9.876;2022-09-03T12:04:41;100597.56;;;23.57;40.98
19676;BME280;39539;52.202;9.876;2022-09-03T12:16:35;100579.31;;;23.63;39.91
19676;BME280;39539;52.202;9.876;2022-09-03T12:19:34;100580.06;;;23.49;40.03
19676;BME280;39539;52.202;9.876;2022-09-03T12:22:00;100579.69;;;23.56;40.03
19676;BME280;39539;52.202;9.876;2022-09-03T12:24:28;100572.09;;;23.39;39.87
19676;BME280;39539;52.202;9.876;2022-09-03T12:27:00;100568.50;;;23.25;40.43
19676;BME280;39539;52.202;9.876;2022-09-03T12:29:29;100570.31;;;23.29;39.69
19676;BME280;39539;52.202;9.876;2022-09-03T12:32:05;100575.41;;;23.17;40.26
19676;BME280;39539;52.202;9.876;2022-09-03T12:34:31;100562.63;;;23.18;40.40
19676;BME280;39539;52.202;9.876;2022-09-03T12:36:57;100561.31;;;23.34;40.77
19676;BME280;39539;52.202;9.876;2022-09-03T12:39:24;100584.09;;;23.52;39.71
19676;BME280;39539;52.202;9.876;2022-09-03T12:44:27;100571.63;;;23.51;39.29
19676;BME280;39539;52.202;9.876;2022-09-03T12:47:22;100562.56;;;23.42;39.76
19676;BME280;39539;52.202;9.876;2022-09-03T12:49:51;100560.78;;;23.51;40.14
19676;BME280;39539;52.202;9.876;2022-09-03T12:52:33;100558.78;;;23.57;39.50
19676;BME280;39539;52.202;9.876;2022-09-03T12:55:07;100553.94;;;23.53;39.63
19676;BME280;39539;52.202;9.876;2022-09-03T12:57:43;100553.16;;;23.53;39.81
19676;BME280;39539;52.202;9.876;2022-09-03T13:00:13;100548.13;;;23.60;39.81
19676;BME280;39539;52.202;9.876;2022-09-03T13:05:53;100550.66;;;23.57;39.90
19676;BME280;39539;52.202;9.876;2022-09-03T13:08:27;100554.16;;;23.57;39.71
19676;BME280;39539;52.202;9.876;2022-09-03T13:10:56;100547.66;;;23.39;39.78
19676;BME280;39539;52.202;9.876;2022-09-03T13:21:53;100535.91;;;23.44;39.51
19676;BME280;39539;52.202;9.876;2022-09-03T13:36:09;100530.22;;;23.26;40.10
19676;BME280;39539;52.202;9.876;2022-09-03T13:41:23;100534.56;;;23.27;39.48
19676;BME280;39539;52.202;9.876;2022-09-03T13:44:17;100564.03;;;23.15;39.56
19676;BME280;39539;52.202;9.876;2022-09-03T13:46:49;100517.06;;;23.01;40.09
19676;BME280;39539;52.202;9.876;2022-09-03T14:03:51;100530.88;;;23.18;39.59
19676;BME280;39539;52.202;9.876;2022-09-03T14:06:40;100534.84;;;23.07;39.77
19676;BME280;39539;52.202;9.876;2022-09-03T14:15:00;100532.53;;;23.19;40.25
19676;BME280;39539;52.202;9.876;2022-09-03T14:23:01;100530.47;;;23.11;39.76
19676;BME280;39539;52.202;9.876;2022-09-03T14:25:29;100525.25;;;23.15;39.72
19676;BME280;39539;52.202;9.876;2022-09-03T14:28:12;100528.69;;;23.20;39.42
19676;BME280;39539;52.202;9.876;2022-09-03T14:30:57;100520.44;;;23.12;39.91
19676;BME280;39539;52.202;9.876;2022-09-03T14:33:43;100527.38;;;23.18;39.45
19676;BME280;39539;52.202;9.876;2022-09-03T14:39:46;100530.47;;;23.11;39.68
19676;BME280;39539;52.202;9.876;2022-09-03T14:42:36;100518.75;;;22.97;39.79
19676;BME280;39539;52.202;9.876;2022-09-03T14:59:03;100525.13;;;23.06;39.66
19676;BME280;39539;52.202;9.876;2022-09-03T15:01:34;100545.34;;;23.14;39.23
19676;BME280;39539;52.202;9.876;2022-09-03T15:12:16;100529.13;;;22.90;39.18
19676;BME280;39539;52.202;9.876;2022-09-03T15:14:55;100514.03;;;22.83;39.53
19676;BME280;39539;52.202;9.876;2022-09-03T15:17:47;100523.09;;;22.93;39.46
19676;BME280;39539;52.202;9.876;2022-09-03T15:20:48;100532.59;;;22.95;39.41
19676;BME280;39539;52.202;9.876;2022-09-03T15:35:29;100533.16;;;22.92;39.72
19676;BME280;39539;52.202;9.876;2022-09-03T15:38:08;100513.59;;;22.76;40.15
19676;BME280;39539;52.202;9.876;2022-09-03T15:43:10;100523.97;;;22.69;39.78
19676;BME280;39539;52.202;9.876;2022-09-03T15:48:36;100533.06;;;22.78;40.18
19676;BME280;39539;52.202;9.876;2022-09-03T15:51:22;100535.28;;;22.76;39.79
19676;BME280;39539;52.202;9.876;2022-09-03T15:54:00;100540.13;;;22.79;40.36
19676;BME280;39539;52.202;9.876;2022-09-03T15:59:39;100538.06;;;22.71;39.80
19676;BME280;39539;52.202;9.876;2022-09-03T16:02:14;100517.03;;;22.63;39.61
19676;BME280;39539;52.202;9.876;2022-09-03T16:13:02;100530.25;;;22.46;40.06
19676;BME280;39539;52.202;9.876;2022-09-03T16:15:58;100537.06;;;22.43;39.91
19676;BME280;39539;52.202;9.876;2022-09-03T16:18:29;100520.56;;;22.39;40.13
19676;BME280;39539;52.202;9.876;2022-09-03T16:21:01;100524.13;;;22.35;39.71
19676;BME280;39539;52.202;9.876;2022-09-03T16:26:15;100519.88;;;22.29;40.37
19676;BME280;39539;52.202;9.876;2022-09-03T16:28:52;100527.69;;;22.30;40.12
19676;BME280;39539;52.202;9.876;2022-09-03T16:34:45;100534.22;;;22.29;40.24
19676;BME280;39539;52.202;9.876;2022-09-03T16:42:46;100527.97;;;22.05;40.62
19676;BME280;39539;52.202;9.876;2022-09-03T16:53:12;100559.69;;;21.99;40.96
19676;BME280;39539;52.202;9.876;2022-09-03T17:04:34;100564.63;;;21.92;40.79
19676;BME280;39539;52.202;9.876;2022-09-03T17:12:43;100568.81;;;21.79;41.19
19676;BME280;39539;52.202;9.876;2022-09-03T17:20:48;100562.44;;;21.65;41.45
19676;BME280;39539;52.202;9.876;2022-09-03T17:26:08;100562.78;;;21.58;41.54
19676;BME280;39539;52.202;9.876;2022-09-03T17:29:32;100567.44;;;21.47;42.04
19676;BME280;39539;52.202;9.876;2022-09-03T17:32:16;100564.25;;;21.40;42.14
19676;BME280;39539;52.202;9.876;2022-09-03T17:35:19;100577.50;;;21.42;42.26
19676;BME280;39539;52.202;9.876;2022-09-03T17:38:57;100583.47;;;21.39;42.18
19676;BME280;39539;52.202;9.876;2022-09-03T17:47:04;100588.91;;;21.28;42.25